sensor_id;sensor_type;location;lat;lon;timestamp;pressure;altitude;pressure_sealevel;temperature;humidity
13934;BME280;7039;52.168;9.866;2023-05-07T00:01:01;100973.44;;;13.90;75.72
13934;BME280;7039;52.168;9.866;2023-05-07T00:03:29;100967.06;;;13.94;75.51
13934;BME280;7039;52.168;9.866;2023-05-07T00:05:55;100959.22;;;13.78;76.03
13934;BME280;7039;52.168;9.866;2023-05-07T00:08:22;100958.19;;;13.65;76.99
13934;BME280;7039;52.168;9.866;2023-05-07T00:10:48;100957.63;;;13.75;76.19
13934;BME280;7039;52.168;9.866;2023-05-07T00:13:15;100949.09;;;13.72;76.32
13934;BME280;7039;52.168;9.866;2023-05-07T00:15:41;100950.59;;;13.60;76.71
13934;BME280;7039;52.168;9.866;2023-05-07T00:18:08;100953.56;;;13.70;76.31
13934;BME280;7039;52.168;9.866;2023-05-07T00:20:36;100960.34;;;13.74;76.36
13934;BME280;7039;52.168;9.866;2023-05-07T00:23:02;100953.56;;;13.70;76.81
13934;BME280;7039;52.168;9.866;2023-05-07T00:25:28;100951.47;;;13.61;77.02
13934;BME280;7039;52.168;9.866;2023-05-07T00:27:55;100946.53;;;13.70;76.60
13934;BME280;7039;52.168;9.866;2023-05-07T00:30:22;100942.91;;;13.73;76.55
13934;BME280;7039;52.168;9.866;2023-05-07T00:32:49;100942.66;;;13.62;76.88
13934;BME280;7039;52.168;9.866;2023-05-07T00:35:16;100933.63;;;13.51;77.47
13934;BME280;7039;52.168;9.866;2023-05-07T00:37:43;100933.38;;;13.40;78.12
13934;BME280;7039;52.168;9.866;2023-05-07T00:40:10;100929.28;;;13.50;77.61
13934;BME280;7039;52.168;9.866;2023-05-07T00:42:37;100934.38;;;13.38;78.09
13934;BME280;7039;52.168;9.866;2023-05-07T00:45:05;100926.00;;;13.47;77.64
13934;BME280;7039;52.168;9.866;2023-05-07T00:47:31;100930.06;;;13.52;77.59
13934;BME280;7039;52.168;9.866;2023-05-07T00:49:58;100934.47;;;13.52;77.33
13934;BME280;7039;52.168;9.866;2023-05-07T00:52:25;100928.53;;;13.32;78.17
13934;BME280;7039;52.168;9.866;2023-05-07T00:54:54;100928.19;;;13.39;77.88
13934;BME280;7039;52.168;9.866;2023-05-07T00:57:21;100937.72;;;13.40;77.85
13934;BME280;7039;52.168;9.866;2023-05-07T00:59:50;100932.09;;;13.14;78.51
13934;BME280;7039;52.168;9.866;2023-05-07T01:02:17;100928.41;;;13.18;78.94
13934;BME280;7039;52.168;9.866;2023-05-07T01:04:44;100928.19;;;13.05;79.04
13934;BME280;7039;52.168;9.866;2023-05-07T01:07:10;100926.84;;;12.98;79.61
13934;BME280;7039;52.168;9.866;2023-05-07T01:09:37;100933.84;;;12.98;79.68
13934;BME280;7039;52.168;9.866;2023-05-07T01:12:06;100943.00;;;13.06;79.40
13934;BME280;7039;52.168;9.866;2023-05-07T01:14:33;100934.19;;;13.07;79.30
13934;BME280;7039;52.168;9.866;2023-05-07T01:17:01;100944.91;;;13.03;79.52
13934;BME280;7039;52.168;9.866;2023-05-07T01:19:28;100940.22;;;13.09;79.41
13934;BME280;7039;52.168;9.866;2023-05-07T01:22:01;100931.56;;;13.07;79.47
13934;BME280;7039;52.168;9.866;2023-05-07T01:24:31;100940.00;;;12.96;79.98
13934;BME280;7039;52.168;9.866;2023-05-07T01:26:57;100942.25;;;12.87;80.03
13934;BME280;7039;52.168;9.866;2023-05-07T01:29:24;100936.88;;;12.90;79.65
13934;BME280;7039;52.168;9.866;2023-05-07T01:31:51;100938.50;;;12.75;80.52
13934;BME280;7039;52.168;9.866;2023-05-07T01:34:20;100940.53;;;12.70;80.94
13934;BME280;7039;52.168;9.866;2023-05-07T01:36:47;100944.09;;;12.85;80.51
13934;BME280;7039;52.168;9.866;2023-05-07T01:39:15;100944.09;;;12.85;80.30
13934;BME280;7039;52.168;9.866;2023-05-07T01:41:44;100944.53;;;13.10;79.37
13934;BME280;7039;52.168;9.866;2023-05-07T01:44:12;100944.63;;;12.91;80.23
13934;BME280;7039;52.168;9.866;2023-05-07T01:46:40;100941.69;;;12.98;79.81
13934;BME280;7039;52.168;9.866;2023-05-07T01:49:06;100945.66;;;12.71;80.60
13934;BME280;7039;52.168;9.866;2023-05-07T01:51:33;100945.13;;;12.65;81.35
13934;BME280;7039;52.168;9.866;2023-05-07T01:54:00;100946.81;;;12.83;80.29
13934;BME280;7039;52.168;9.866;2023-05-07T01:56:26;100940.34;;;12.90;79.87
13934;BME280;7039;52.168;9.866;2023-05-07T01:58:54;100943.97;;;12.88;80.24
13934;BME280;7039;52.168;9.866;2023-05-07T02:01:21;100946.94;;;12.98;79.31
13934;BME280;7039;52.168;9.866;2023-05-07T02:03:47;100936.59;;;12.61;80.29
13934;BME280;7039;52.168;9.866;2023-05-07T02:06:13;100940.00;;;12.63;80.26
13934;BME280;7039;52.168;9.866;2023-05-07T02:08:40;100945.22;;;12.96;79.31
13934;BME280;7039;52.168;9.866;2023-05-07T02:11:07;100947.00;;;12.96;78.94
13934;BME280;7039;52.168;9.866;2023-05-07T02:13:33;100949.75;;;12.77;79.50
13934;BME280;7039;52.168;9.866;2023-05-07T02:16:02;100955.38;;;12.69;78.96
13934;BME280;7039;52.168;9.866;2023-05-07T02:18:29;100951.16;;;12.49;80.27
13934;BME280;7039;52.168;9.866;2023-05-07T02:20:55;100954.78;;;12.47;80.63
13934;BME280;7039;52.168;9.866;2023-05-07T02:23:22;100958.44;;;12.60;80.06
13934;BME280;7039;52.168;9.866;2023-05-07T02:25:49;100969.16;;;12.73;79.57
13934;BME280;7039;52.168;9.866;2023-05-07T02:28:15;100969.38;;;12.68;79.69
13934;BME280;7039;52.168;9.866;2023-05-07T02:30:42;100973.63;;;12.71;79.47
13934;BME280;7039;52.168;9.866;2023-05-07T02:33:09;100974.31;;;12.74;79.30
13934;BME280;7039;52.168;9.866;2023-05-07T02:35:37;100975.84;;;12.79;78.92
13934;BME280;7039;52.168;9.866;2023-05-07T02:38:04;100974.31;;;12.74;78.82
13934;BME280;7039;52.168;9.866;2023-05-07T02:40:30;100978.31;;;12.82;78.70
13934;BME280;7039;52.168;9.866;2023-05-07T02:42:58;100972.00;;;12.86;78.58
13934;BME280;7039;52.168;9.866;2023-05-07T02:45:25;100981.69;;;12.84;78.49
13934;BME280;7039;52.168;9.866;2023-05-07T02:47:51;100978.66;;;12.91;78.20
13934;BME280;7039;52.168;9.866;2023-05-07T02:50:19;100982.06;;;12.93;78.33
13934;BME280;7039;52.168;9.866;2023-05-07T02:52:46;100972.22;;;12.81;78.31
13934;BME280;7039;52.168;9.866;2023-05-07T02:55:13;100972.53;;;12.75;78.60
13934;BME280;7039;52.168;9.866;2023-05-07T02:57:40;100968.44;;;12.87;78.31
13934;BME280;7039;52.168;9.866;2023-05-07T03:00:13;100965.88;;;12.85;78.75
13934;BME280;7039;52.168;9.866;2023-05-07T03:02:41;100965.38;;;12.79;78.34
13934;BME280;7039;52.168;9.866;2023-05-07T03:05:07;100954.09;;;12.61;78.84
13934;BME280;7039;52.168;9.866;2023-05-07T03:07:35;100968.53;;;12.68;78.47
13934;BME280;7039;52.168;9.866;2023-05-07T03:10:02;100959.91;;;12.48;79.20
13934;BME280;7039;52.168;9.866;2023-05-07T03:12:29;100955.69;;;12.46;79.25
13934;BME280;7039;52.168;9.866;2023-05-07T03:14:56;100967.06;;;12.62;78.53
13934;BME280;7039;52.168;9.866;2023-05-07T03:17:22;100976.09;;;12.74;78.14
13934;BME280;7039;52.168;9.866;2023-05-07T03:19:49;100974.78;;;12.48;78.71
13934;BME280;7039;52.168;9.866;2023-05-07T03:22:15;100960.91;;;12.46;79.02
13934;BME280;7039;52.168;9.866;2023-05-07T03:24:43;100961.22;;;12.57;79.16
13934;BME280;7039;52.168;9.866;2023-05-07T03:27:09;100954.63;;;12.67;78.34
13934;BME280;7039;52.168;9.866;2023-05-07T03:29:36;100953.25;;;12.43;79.31
13934;BME280;7039;52.168;9.866;2023-05-07T03:32:03;100953.00;;;12.47;78.94
13934;BME280;7039;52.168;9.866;2023-05-07T03:34:29;100952.16;;;12.47;79.59
13934;BME280;7039;52.168;9.866;2023-05-07T03:36:56;100947.91;;;12.44;79.24
13934;BME280;7039;52.168;9.866;2023-05-07T03:39:22;100944.09;;;12.51;79.27
13934;BME280;7039;52.168;9.866;2023-05-07T03:41:50;100944.56;;;12.42;79.15
13934;BME280;7039;52.168;9.866;2023-05-07T03:44:16;100948.75;;;12.62;78.69
13934;BME280;7039;52.168;9.866;2023-05-07T03:46:43;100956.28;;;12.68;78.65
13934;BME280;7039;52.168;9.866;2023-05-07T03:49:09;100947.25;;;12.58;78.40
13934;BME280;7039;52.168;9.866;2023-05-07T03:51:36;100943.75;;;12.58;78.77
13934;BME280;7039;52.168;9.866;2023-05-07T03:54:02;100938.69;;;12.54;78.71
13934;BME280;7039;52.168;9.866;2023-05-07T03:56:29;100942.78;;;12.43;79.28
13934;BME280;7039;52.168;9.866;2023-05-07T03:58:57;100951.00;;;12.52;79.22
13934;BME280;7039;52.168;9.866;2023-05-07T04:01:24;100957.53;;;12.61;78.54
13934;BME280;7039;52.168;9.866;2023-05-07T04:03:50;100953.38;;;12.57;78.89
13934;BME280;7039;52.168;9.866;2023-05-07T04:06:17;100959.91;;;12.66;78.30
13934;BME280;7039;52.168;9.866;2023-05-07T04:08:43;100966.00;;;12.49;78.64
13934;BME280;7039;52.168;9.866;2023-05-07T04:11:10;100970.63;;;12.44;79.01
13934;BME280;7039;52.168;9.866;2023-05-07T04:13:36;100970.47;;;12.64;78.46
13934;BME280;7039;52.168;9.866;2023-05-07T04:16:05;100985.69;;;12.73;78.60
13934;BME280;7039;52.168;9.866;2023-05-07T04:18:31;100978.25;;;12.66;78.37
13934;BME280;7039;52.168;9.866;2023-05-07T04:20:58;100968.41;;;12.53;78.77
13934;BME280;7039;52.168;9.866;2023-05-07T04:23:24;100971.88;;;12.54;79.12
13934;BME280;7039;52.168;9.866;2023-05-07T04:25:51;100978.78;;;12.55;78.76
13934;BME280;7039;52.168;9.866;2023-05-07T04:28:17;100980.38;;;12.75;78.30
13934;BME280;7039;52.168;9.866;2023-05-07T04:30:44;100981.00;;;12.45;79.65
13934;BME280;7039;52.168;9.866;2023-05-07T04:33:13;100987.00;;;12.65;78.57
13934;BME280;7039;52.168;9.866;2023-05-07T04:35:40;100989.00;;;12.77;78.22
13934;BME280;7039;52.168;9.866;2023-05-07T04:38:06;100990.47;;;12.83;78.03
13934;BME280;7039;52.168;9.866;2023-05-07T04:40:33;101000.31;;;12.95;77.36
13934;BME280;7039;52.168;9.866;2023-05-07T04:43:01;100993.47;;;12.75;78.24
13934;BME280;7039;52.168;9.866;2023-05-07T04:45:27;100991.41;;;12.64;78.38
13934;BME280;7039;52.168;9.866;2023-05-07T04:47:54;100990.09;;;12.56;78.71
13934;BME280;7039;52.168;9.866;2023-05-07T04:50:22;101004.88;;;12.74;78.29
13934;BME280;7039;52.168;9.866;2023-05-07T04:52:49;100993.78;;;12.69;78.24
13934;BME280;7039;52.168;9.866;2023-05-07T04:55:16;100996.03;;;12.59;78.30
13934;BME280;7039;52.168;9.866;2023-05-07T04:57:42;101001.72;;;12.50;78.82
13934;BME280;7039;52.168;9.866;2023-05-07T05:00:09;101004.25;;;12.51;78.06
13934;BME280;7039;52.168;9.866;2023-05-07T05:02:36;101015.66;;;12.68;77.96
13934;BME280;7039;52.168;9.866;2023-05-07T05:05:03;101009.59;;;12.67;77.89
13934;BME280;7039;52.168;9.866;2023-05-07T05:07:31;101015.59;;;12.69;77.74
13934;BME280;7039;52.168;9.866;2023-05-07T05:09:58;101014.78;;;12.50;78.98
13934;BME280;7039;52.168;9.866;2023-05-07T05:12:24;101016.44;;;12.70;77.87
13934;BME280;7039;52.168;9.866;2023-05-07T05:14:51;101017.41;;;12.85;77.51
13934;BME280;7039;52.168;9.866;2023-05-07T05:17:18;101009.34;;;12.72;77.79
13934;BME280;7039;52.168;9.866;2023-05-07T05:19:44;101020.78;;;12.87;77.04
13934;BME280;7039;52.168;9.866;2023-05-07T05:22:11;101017.56;;;12.82;77.49
13934;BME280;7039;52.168;9.866;2023-05-07T05:24:39;101019.34;;;12.81;77.15
13934;BME280;7039;52.168;9.866;2023-05-07T05:27:05;101026.09;;;12.85;77.12
13934;BME280;7039;52.168;9.866;2023-05-07T05:29:32;101035.03;;;12.99;76.47
13934;BME280;7039;52.168;9.866;2023-05-07T05:31:58;101034.41;;;12.93;76.14
13934;BME280;7039;52.168;9.866;2023-05-07T05:34:24;101031.66;;;12.79;76.76
13934;BME280;7039;52.168;9.866;2023-05-07T05:36:51;101043.53;;;13.04;75.66
13934;BME280;7039;52.168;9.866;2023-05-07T05:39:17;101043.59;;;13.02;75.58
13934;BME280;7039;52.168;9.866;2023-05-07T05:41:45;101035.13;;;12.80;76.54
13934;BME280;7039;52.168;9.866;2023-05-07T05:44:12;101042.59;;;12.70;76.70
13934;BME280;7039;52.168;9.866;2023-05-07T05:46:38;101039.03;;;12.71;76.78
13934;BME280;7039;52.168;9.866;2023-05-07T05:49:05;101036.66;;;12.84;76.38
13934;BME280;7039;52.168;9.866;2023-05-07T05:51:32;101040.13;;;12.84;76.16
13934;BME280;7039;52.168;9.866;2023-05-07T05:53:58;101046.66;;;12.75;76.38
13934;BME280;7039;52.168;9.866;2023-05-07T05:56:25;101041.28;;;12.79;76.04
13934;BME280;7039;52.168;9.866;2023-05-07T05:58:52;101035.81;;;12.66;76.23
13934;BME280;7039;52.168;9.866;2023-05-07T06:01:19;101031.50;;;12.82;75.85
13934;BME280;7039;52.168;9.866;2023-05-07T06:03:45;101026.34;;;12.81;75.65
13934;BME280;7039;52.168;9.866;2023-05-07T06:06:12;101035.72;;;12.85;75.97
13934;BME280;7039;52.168;9.866;2023-05-07T06:08:40;101035.78;;;13.01;75.04
13934;BME280;7039;52.168;9.866;2023-05-07T06:11:06;101042.16;;;13.12;74.12
13934;BME280;7039;52.168;9.866;2023-05-07T06:13:32;101044.81;;;13.30;74.10
13934;BME280;7039;52.168;9.866;2023-05-07T06:16:00;101044.34;;;13.55;73.13
13934;BME280;7039;52.168;9.866;2023-05-07T06:18:27;101030.06;;;13.27;73.13
13934;BME280;7039;52.168;9.866;2023-05-07T06:20:54;101032.94;;;13.23;73.40
13934;BME280;7039;52.168;9.866;2023-05-07T06:23:20;101038.00;;;13.43;73.17
13934;BME280;7039;52.168;9.866;2023-05-07T06:25:48;101044.31;;;13.72;72.26
13934;BME280;7039;52.168;9.866;2023-05-07T06:28:15;101048.09;;;13.67;72.17
13934;BME280;7039;52.168;9.866;2023-05-07T06:30:41;101053.34;;;13.67;71.71
13934;BME280;7039;52.168;9.866;2023-05-07T06:33:09;101052.25;;;13.71;71.87
13934;BME280;7039;52.168;9.866;2023-05-07T06:35:36;101052.00;;;14.07;70.95
13934;BME280;7039;52.168;9.866;2023-05-07T06:38:02;101047.06;;;13.53;71.65
13934;BME280;7039;52.168;9.866;2023-05-07T06:40:29;101052.94;;;13.74;71.16
13934;BME280;7039;52.168;9.866;2023-05-07T06:42:55;101043.81;;;13.97;70.58
13934;BME280;7039;52.168;9.866;2023-05-07T06:45:21;101047.97;;;14.17;70.53
13934;BME280;7039;52.168;9.866;2023-05-07T06:47:49;101055.31;;;14.27;69.92
13934;BME280;7039;52.168;9.866;2023-05-07T06:50:16;101057.81;;;14.44;69.42
13934;BME280;7039;52.168;9.866;2023-05-07T06:52:43;101048.75;;;14.66;68.54
13934;BME280;7039;52.168;9.866;2023-05-07T06:55:09;101053.44;;;14.60;68.34
13934;BME280;7039;52.168;9.866;2023-05-07T06:57:37;101051.31;;;14.67;68.13
13934;BME280;7039;52.168;9.866;2023-05-07T07:00:05;101057.34;;;14.83;67.88
13934;BME280;7039;52.168;9.866;2023-05-07T07:02:34;101055.00;;;14.79;67.55
13934;BME280;7039;52.168;9.866;2023-05-07T07:05:00;101054.88;;;14.80;67.80
13934;BME280;7039;52.168;9.866;2023-05-07T07:07:28;101062.59;;;14.83;67.46
13934;BME280;7039;52.168;9.866;2023-05-07T07:09:55;101052.13;;;14.68;67.70
13934;BME280;7039;52.168;9.866;2023-05-07T07:12:21;101058.75;;;14.89;67.52
13934;BME280;7039;52.168;9.866;2023-05-07T07:14:50;101060.09;;;14.66;68.14
13934;BME280;7039;52.168;9.866;2023-05-07T07:17:16;101063.03;;;15.20;67.08
13934;BME280;7039;52.168;9.866;2023-05-07T07:19:42;101060.94;;;14.97;67.15
13934;BME280;7039;52.168;9.866;2023-05-07T07:22:09;101063.31;;;15.16;66.53
13934;BME280;7039;52.168;9.866;2023-05-07T07:24:37;101064.56;;;15.24;66.75
13934;BME280;7039;52.168;9.866;2023-05-07T07:27:03;101061.69;;;14.99;66.62
13934;BME280;7039;52.168;9.866;2023-05-07T07:29:30;101072.97;;;15.15;66.66
13934;BME280;7039;52.168;9.866;2023-05-07T07:31:56;101066.75;;;15.02;66.84
13934;BME280;7039;52.168;9.866;2023-05-07T07:34:23;101064.06;;;15.03;66.58
13934;BME280;7039;52.168;9.866;2023-05-07T07:36:49;101070.09;;;15.34;65.86
13934;BME280;7039;52.168;9.866;2023-05-07T07:39:15;101069.25;;;15.48;65.85
13934;BME280;7039;52.168;9.866;2023-05-07T07:41:43;101063.63;;;15.40;66.14
13934;BME280;7039;52.168;9.866;2023-05-07T07:44:10;101061.63;;;15.15;65.32
13934;BME280;7039;52.168;9.866;2023-05-07T07:46:38;101060.31;;;15.22;65.78
13934;BME280;7039;52.168;9.866;2023-05-07T07:49:04;101063.78;;;15.37;65.51
13934;BME280;7039;52.168;9.866;2023-05-07T07:51:31;101067.53;;;15.18;66.14
13934;BME280;7039;52.168;9.866;2023-05-07T07:53:57;101072.31;;;15.12;66.16
13934;BME280;7039;52.168;9.866;2023-05-07T07:56:24;101068.34;;;14.90;65.98
13934;BME280;7039;52.168;9.866;2023-05-07T07:58:52;101076.78;;;14.95;66.81
13934;BME280;7039;52.168;9.866;2023-05-07T08:01:18;101085.56;;;15.39;65.57
13934;BME280;7039;52.168;9.866;2023-05-07T08:03:44;101088.84;;;15.14;65.58
13934;BME280;7039;52.168;9.866;2023-05-07T08:06:11;101078.25;;;14.85;66.25
13934;BME280;7039;52.168;9.866;2023-05-07T08:08:37;101090.50;;;15.00;66.28
13934;BME280;7039;52.168;9.866;2023-05-07T08:11:04;101082.31;;;14.91;66.36
13934;BME280;7039;52.168;9.866;2023-05-07T08:13:30;101083.94;;;15.08;66.11
13934;BME280;7039;52.168;9.866;2023-05-07T08:15:58;101091.81;;;15.08;65.95
13934;BME280;7039;52.168;9.866;2023-05-07T08:18:25;101084.72;;;14.79;66.60
13934;BME280;7039;52.168;9.866;2023-05-07T08:20:53;101082.09;;;14.79;67.17
13934;BME280;7039;52.168;9.866;2023-05-07T08:23:20;101073.88;;;14.86;66.69
13934;BME280;7039;52.168;9.866;2023-05-07T08:25:46;101089.31;;;15.35;65.93
13934;BME280;7039;52.168;9.866;2023-05-07T08:28:13;101087.75;;;15.47;65.44
13934;BME280;7039;52.168;9.866;2023-05-07T08:30:39;101087.44;;;15.37;65.53
13934;BME280;7039;52.168;9.866;2023-05-07T08:33:08;101092.63;;;15.53;65.27
13934;BME280;7039;52.168;9.866;2023-05-07T08:35:34;101095.84;;;15.58;65.41
13934;BME280;7039;52.168;9.866;2023-05-07T08:38:01;101104.09;;;15.80;64.66
13934;BME280;7039;52.168;9.866;2023-05-07T08:40:28;101094.91;;;15.44;65.10
13934;BME280;7039;52.168;9.866;2023-05-07T08:42:56;101103.47;;;15.77;64.67
13934;BME280;7039;52.168;9.866;2023-05-07T08:45:23;101098.63;;;15.40;65.63
13934;BME280;7039;52.168;9.866;2023-05-07T08:47:52;101103.06;;;15.69;64.85
13934;BME280;7039;52.168;9.866;2023-05-07T08:50:22;101109.63;;;15.61;64.84
13934;BME280;7039;52.168;9.866;2023-05-07T08:52:49;101105.53;;;15.72;64.46
13934;BME280;7039;52.168;9.866;2023-05-07T08:55:16;101104.50;;;15.89;63.86
13934;BME280;7039;52.168;9.866;2023-05-07T08:57:43;101106.09;;;15.91;63.99
13934;BME280;7039;52.168;9.866;2023-05-07T09:00:11;101108.38;;;16.24;63.06
13934;BME280;7039;52.168;9.866;2023-05-07T09:02:37;101099.97;;;15.91;63.77
13934;BME280;7039;52.168;9.866;2023-05-07T09:05:05;101101.94;;;16.01;63.75
13934;BME280;7039;52.168;9.866;2023-05-07T09:07:32;101098.78;;;16.23;62.68
13934;BME280;7039;52.168;9.866;2023-05-07T09:10:01;101097.59;;;16.00;64.02
13934;BME280;7039;52.168;9.866;2023-05-07T09:12:27;101097.78;;;16.26;63.11
13934;BME280;7039;52.168;9.866;2023-05-07T09:14:54;101101.09;;;16.69;62.25
13934;BME280;7039;52.168;9.866;2023-05-07T09:17:20;101100.09;;;16.58;62.09
13934;BME280;7039;52.168;9.866;2023-05-07T09:19:47;101096.91;;;16.53;61.59
13934;BME280;7039;52.168;9.866;2023-05-07T09:22:13;101092.59;;;16.52;61.47
13934;BME280;7039;52.168;9.866;2023-05-07T09:24:47;101086.00;;;16.32;62.23
13934;BME280;7039;52.168;9.866;2023-05-07T09:27:14;101081.78;;;16.29;62.84
13934;BME280;7039;52.168;9.866;2023-05-07T09:29:40;101090.50;;;16.29;63.03
13934;BME280;7039;52.168;9.866;2023-05-07T09:32:08;101091.47;;;16.28;62.69
13934;BME280;7039;52.168;9.866;2023-05-07T09:34:34;101095.09;;;16.40;62.85
13934;BME280;7039;52.168;9.866;2023-05-07T09:37:02;101094.50;;;16.49;62.42
13934;BME280;7039;52.168;9.866;2023-05-07T09:39:38;101096.00;;;16.39;62.78
13934;BME280;7039;52.168;9.866;2023-05-07T09:42:06;101096.00;;;16.66;62.00
13934;BME280;7039;52.168;9.866;2023-05-07T09:44:33;101085.69;;;16.36;62.29
13934;BME280;7039;52.168;9.866;2023-05-07T09:47:00;101083.88;;;15.66;63.91
13934;BME280;7039;52.168;9.866;2023-05-07T09:49:29;101086.94;;;16.31;63.22
13934;BME280;7039;52.168;9.866;2023-05-07T09:51:56;101095.94;;;16.41;62.56
13934;BME280;7039;52.168;9.866;2023-05-07T09:54:24;101090.03;;;16.23;62.57
13934;BME280;7039;52.168;9.866;2023-05-07T09:56:51;101092.25;;;16.43;62.60
13934;BME280;7039;52.168;9.866;2023-05-07T09:59:20;101088.13;;;16.39;62.71
13934;BME280;7039;52.168;9.866;2023-05-07T10:01:48;101085.38;;;16.41;62.24
13934;BME280;7039;52.168;9.866;2023-05-07T10:04:16;101088.25;;;16.50;62.31
13934;BME280;7039;52.168;9.866;2023-05-07T10:06:43;101082.84;;;16.39;62.29
13934;BME280;7039;52.168;9.866;2023-05-07T10:09:10;101096.09;;;16.79;62.07
13934;BME280;7039;52.168;9.866;2023-05-07T10:11:38;101098.78;;;16.78;61.95
13934;BME280;7039;52.168;9.866;2023-05-07T10:14:05;101093.50;;;16.92;61.28
13934;BME280;7039;52.168;9.866;2023-05-07T10:16:35;101096.16;;;17.18;60.90
13934;BME280;7039;52.168;9.866;2023-05-07T10:19:02;101100.72;;;17.28;60.83
13934;BME280;7039;52.168;9.866;2023-05-07T10:21:29;101101.66;;;17.15;60.65
13934;BME280;7039;52.168;9.866;2023-05-07T10:23:58;101108.63;;;17.28;60.68
13934;BME280;7039;52.168;9.866;2023-05-07T10:26:27;101114.00;;;16.87;61.43
13934;BME280;7039;52.168;9.866;2023-05-07T10:28:59;101108.41;;;17.44;61.15
13934;BME280;7039;52.168;9.866;2023-05-07T10:31:42;101107.56;;;17.57;60.57
13934;BME280;7039;52.168;9.866;2023-05-07T10:34:17;101105.88;;;17.81;59.57
13934;BME280;7039;52.168;9.866;2023-05-07T10:36:46;101117.34;;;18.06;58.54
13934;BME280;7039;52.168;9.866;2023-05-07T10:39:13;101110.06;;;18.33;59.04
13934;BME280;7039;52.168;9.866;2023-05-07T10:41:40;101097.38;;;18.39;58.25
13934;BME280;7039;52.168;9.866;2023-05-07T10:44:06;101099.47;;;18.46;57.82
13934;BME280;7039;52.168;9.866;2023-05-07T10:46:34;101100.38;;;18.21;58.36
13934;BME280;7039;52.168;9.866;2023-05-07T10:49:10;101108.44;;;18.07;58.60
13934;BME280;7039;52.168;9.866;2023-05-07T10:51:41;101110.91;;;18.34;58.14
13934;BME280;7039;52.168;9.866;2023-05-07T10:54:18;101103.38;;;18.41;57.81
13934;BME280;7039;52.168;9.866;2023-05-07T10:56:45;101104.78;;;17.97;59.51
13934;BME280;7039;52.168;9.866;2023-05-07T10:59:32;101105.22;;;18.03;58.30
13934;BME280;7039;52.168;9.866;2023-05-07T11:02:02;101110.06;;;18.57;57.38
13934;BME280;7039;52.168;9.866;2023-05-07T11:04:29;101106.53;;;18.22;57.94
13934;BME280;7039;52.168;9.866;2023-05-07T11:07:28;101105.31;;;18.26;57.88
13934;BME280;7039;52.168;9.866;2023-05-07T11:09:59;101105.91;;;18.66;58.12
13934;BME280;7039;52.168;9.866;2023-05-07T11:12:54;101115.16;;;18.96;56.74
13934;BME280;7039;52.168;9.866;2023-05-07T11:15:41;101101.63;;;18.52;57.10
13934;BME280;7039;52.168;9.866;2023-05-07T11:18:11;101119.06;;;19.03;56.97
13934;BME280;7039;52.168;9.866;2023-05-07T11:20:55;101109.66;;;18.99;56.89
13934;BME280;7039;52.168;9.866;2023-05-07T11:26:47;101110.88;;;19.75;54.82
13934;BME280;7039;52.168;9.866;2023-05-07T11:29:16;101120.88;;;19.94;55.39
13934;BME280;7039;52.168;9.866;2023-05-07T11:31:43;101115.34;;;19.86;54.38
13934;BME280;7039;52.168;9.866;2023-05-07T11:34:11;101106.88;;;19.58;55.25
13934;BME280;7039;52.168;9.866;2023-05-07T11:36:42;101107.66;;;19.83;54.58
13934;BME280;7039;52.168;9.866;2023-05-07T11:39:23;101121.56;;;20.19;53.81
13934;BME280;7039;52.168;9.866;2023-05-07T11:41:50;101114.03;;;19.92;54.53
13934;BME280;7039;52.168;9.866;2023-05-07T11:44:16;101109.78;;;19.67;54.88
13934;BME280;7039;52.168;9.866;2023-05-07T11:46:43;101118.06;;;19.62;54.42
13934;BME280;7039;52.168;9.866;2023-05-07T11:49:11;101108.72;;;19.69;54.65
13934;BME280;7039;52.168;9.866;2023-05-07T11:51:38;101115.34;;;19.75;54.39
13934;BME280;7039;52.168;9.866;2023-05-07T11:54:06;101117.25;;;19.73;54.33
13934;BME280;7039;52.168;9.866;2023-05-07T11:56:34;101110.16;;;19.85;54.04
13934;BME280;7039;52.168;9.866;2023-05-07T11:59:01;101109.28;;;19.61;54.41
13934;BME280;7039;52.168;9.866;2023-05-07T12:01:27;101103.06;;;19.96;54.29
13934;BME280;7039;52.168;9.866;2023-05-07T12:03:54;101109.41;;;19.94;54.07
13934;BME280;7039;52.168;9.866;2023-05-07T12:06:21;101113.88;;;20.05;54.27
13934;BME280;7039;52.168;9.866;2023-05-07T12:08:48;101110.88;;;19.75;54.21
13934;BME280;7039;52.168;9.866;2023-05-07T12:11:15;101118.97;;;19.74;54.39
13934;BME280;7039;52.168;9.866;2023-05-07T12:13:43;101126.66;;;19.88;53.63
13934;BME280;7039;52.168;9.866;2023-05-07T12:16:10;101130.94;;;20.23;53.87
13934;BME280;7039;52.168;9.866;2023-05-07T12:18:37;101127.31;;;20.35;52.36
13934;BME280;7039;52.168;9.866;2023-05-07T12:21:05;101127.13;;;20.48;52.54
13934;BME280;7039;52.168;9.866;2023-05-07T12:23:33;101122.53;;;20.94;51.60
13934;BME280;7039;52.168;9.866;2023-05-07T12:26:00;101130.75;;;20.91;52.02
13934;BME280;7039;52.168;9.866;2023-05-07T12:28:27;101125.59;;;21.52;50.71
13934;BME280;7039;52.168;9.866;2023-05-07T12:30:53;101135.28;;;21.21;50.62
13934;BME280;7039;52.168;9.866;2023-05-07T12:33:24;101125.00;;;21.27;51.20
13934;BME280;7039;52.168;9.866;2023-05-07T12:35:53;101125.16;;;21.47;50.43
13934;BME280;7039;52.168;9.866;2023-05-07T12:38:20;101124.31;;;21.77;50.16
13934;BME280;7039;52.168;9.866;2023-05-07T12:40:49;101122.88;;;22.04;50.03
13934;BME280;7039;52.168;9.866;2023-05-07T12:43:17;101110.59;;;22.03;49.26
13934;BME280;7039;52.168;9.866;2023-05-07T12:45:45;101114.13;;;21.82;49.69
13934;BME280;7039;52.168;9.866;2023-05-07T12:48:12;101107.53;;;22.17;49.28
13934;BME280;7039;52.168;9.866;2023-05-07T12:50:39;101111.31;;;22.15;49.23
13934;BME280;7039;52.168;9.866;2023-05-07T12:53:06;101111.09;;;22.57;48.53
13934;BME280;7039;52.168;9.866;2023-05-07T12:55:41;101113.06;;;22.45;48.91
13934;BME280;7039;52.168;9.866;2023-05-07T12:58:14;101112.94;;;22.76;48.13
13934;BME280;7039;52.168;9.866;2023-05-07T13:00:41;101102.81;;;22.89;47.60
13934;BME280;7039;52.168;9.866;2023-05-07T13:03:08;101101.03;;;22.60;48.47
13934;BME280;7039;52.168;9.866;2023-05-07T13:05:35;101101.16;;;22.88;47.79